createdAt,value
2019-02-14T00:01:53.011Z,99.90
2019-02-14T00:04:22.945Z,99.90
2019-02-14T00:06:52.887Z,99.90
2019-02-14T00:09:22.851Z,99.90
2019-02-14T00:11:52.807Z,99.90
2019-02-14T00:14:22.740Z,99.90
2019-02-14T00:16:52.737Z,99.90
2019-02-14T00:19:23.848Z,99.90
2019-02-14T00:21:53.799Z,99.90
2019-02-14T00:24:23.732Z,99.90
2019-02-14T00:26:53.839Z,99.90
2019-02-14T00:29:24.139Z,99.90
2019-02-14T00:31:54.082Z,99.90
2019-02-14T00:34:23.994Z,99.90
2019-02-14T00:36:53.969Z,99.90
2019-02-14T00:39:23.831Z,99.90
2019-02-14T00:41:53.733Z,99.90
2019-02-14T00:44:23.694Z,99.90
2019-02-14T00:46:53.948Z,99.90
2019-02-14T00:49:23.885Z,99.90
2019-02-14T00:51:53.814Z,99.90
2019-02-14T00:54:23.743Z,99.90
2019-02-14T00:56:53.639Z,99.90
2019-02-14T00:59:23.691Z,99.90
2019-02-14T01:01:53.594Z,99.90
2019-02-14T01:04:23.465Z,99.90
2019-02-14T01:06:53.390Z,99.90
2019-02-14T01:09:23.313Z,99.90
2019-02-14T01:11:53.511Z,99.90
2019-02-14T01:14:23.450Z,99.90
2019-02-14T01:16:53.390Z,99.90
2019-02-14T01:19:23.658Z,99.90
2019-02-14T01:21:53.555Z,99.90
2019-02-14T01:24:23.502Z,99.90
2019-02-14T01:26:53.427Z,99.90
2019-02-14T01:29:23.284Z,99.90
2019-02-14T01:31:53.178Z,99.90
2019-02-14T01:34:23.112Z,99.90
2019-02-14T01:36:53.035Z,99.90
2019-02-14T01:39:22.961Z,99.90
2019-02-14T01:41:53.114Z,99.90
2019-02-14T01:44:23.328Z,99.90
2019-02-14T01:46:53.261Z,99.90
2019-02-14T01:49:23.224Z,99.90
2019-02-14T01:51:53.128Z,99.90
2019-02-14T01:54:23.067Z,99.90
2019-02-14T01:56:53.221Z,99.90
2019-02-14T01:59:23.339Z,99.90
2019-02-14T02:04:22.378Z,99.90
2019-02-14T02:06:52.290Z,99.90
2019-02-14T02:09:22.464Z,99.90
2019-02-14T02:11:52.365Z,99.90
2019-02-14T02:14:22.222Z,99.90
2019-02-14T02:16:52.141Z,99.90
2019-02-14T02:19:22.470Z,99.90
2019-02-14T02:21:52.585Z,99.90
2019-02-14T02:24:22.489Z,99.90
2019-02-14T02:26:52.318Z,99.90
2019-02-14T02:29:22.262Z,99.90
2019-02-14T02:31:52.165Z,99.90
2019-02-14T02:34:22.118Z,99.90
2019-02-14T02:36:52.179Z,99.90
2019-02-14T02:39:22.153Z,99.90
2019-02-14T02:41:52.051Z,99.90
2019-02-14T02:44:21.967Z,99.90
2019-02-14T02:46:51.881Z,99.90
2019-02-14T02:49:21.830Z,99.90
2019-02-14T02:51:51.752Z,99.90
2019-02-14T02:54:21.689Z,99.90
2019-02-14T02:56:51.539Z,99.90
2019-02-14T02:59:21.906Z,99.90
2019-02-14T03:01:51.817Z,99.90
2019-02-14T03:04:21.692Z,99.90
2019-02-14T03:06:51.626Z,99.90
2019-02-14T03:09:21.557Z,99.90
2019-02-14T03:11:51.474Z,99.90
2019-02-14T03:14:21.346Z,99.90
2019-02-14T03:16:51.251Z,99.90
2019-02-14T03:19:21.524Z,99.90
2019-02-14T03:21:51.354Z,99.90
2019-02-14T03:24:21.284Z,99.90
2019-02-14T03:26:51.523Z,99.90
2019-02-14T03:29:21.434Z,99.90
2019-02-14T03:31:51.696Z,99.90
2019-02-14T03:34:21.603Z,99.90
2019-02-14T03:36:51.905Z,99.90
2019-02-14T03:39:21.841Z,99.90
2019-02-14T03:41:51.966Z,99.90
2019-02-14T03:44:21.992Z,99.90
2019-02-14T03:46:51.918Z,99.90
2019-02-14T03:49:21.857Z,99.90
2019-02-14T03:51:52.161Z,99.90
2019-02-14T03:54:22.240Z,99.90
2019-02-14T03:56:52.193Z,99.90
2019-02-14T03:59:22.129Z,99.90
2019-02-14T04:01:52.061Z,99.90
2019-02-14T04:04:21.966Z,99.90
2019-02-14T04:06:51.916Z,99.90
2019-02-14T04:09:21.758Z,99.90
2019-02-14T04:11:51.709Z,99.90
2019-02-14T04:14:21.556Z,99.90
2019-02-14T04:16:51.415Z,99.90
2019-02-14T04:19:21.318Z,99.90
2019-02-14T04:21:51.264Z,99.90
2019-02-14T04:24:21.485Z,99.90
2019-02-14T04:26:52.650Z,99.90
2019-02-14T04:29:22.975Z,99.90
2019-02-14T04:31:52.865Z,99.90
2019-02-14T04:36:52.046Z,99.90
2019-02-14T04:39:21.907Z,99.90
2019-02-14T04:41:52.152Z,99.90
2019-02-14T04:44:22.079Z,99.90
2019-02-14T04:46:52.036Z,99.90
2019-02-14T04:49:21.884Z,99.90
2019-02-14T04:51:51.841Z,99.90
2019-02-14T04:54:21.660Z,99.90
2019-02-14T04:56:51.632Z,99.90
2019-02-14T04:59:21.553Z,99.90
2019-02-14T05:01:51.499Z,99.90
2019-02-14T05:04:21.796Z,99.90
2019-02-14T05:06:51.746Z,99.90
2019-02-14T05:09:21.968Z,99.90
2019-02-14T05:11:51.920Z,99.90
2019-02-14T05:14:21.922Z,99.90
2019-02-14T05:16:51.853Z,99.90
2019-02-14T05:19:21.784Z,99.90
2019-02-14T05:21:51.718Z,99.90
2019-02-14T05:24:21.651Z,99.90
2019-02-14T05:26:51.595Z,99.90
2019-02-14T05:29:21.522Z,99.90
2019-02-14T05:31:51.496Z,99.90
2019-02-14T05:34:21.346Z,99.90
2019-02-14T05:36:53.652Z,99.90
2019-02-14T05:39:22.889Z,99.90
2019-02-14T05:41:53.161Z,99.90
2019-02-14T05:44:23.079Z,99.90
2019-02-14T05:46:53.094Z,99.90
2019-02-14T05:49:23.052Z,99.90
2019-02-14T05:51:52.995Z,99.90
2019-02-14T05:54:22.981Z,99.90
2019-02-14T05:56:52.863Z,99.90
2019-02-14T05:59:22.789Z,99.90
2019-02-14T06:01:52.717Z,99.90
2019-02-14T06:04:22.661Z,99.90
2019-02-14T06:06:52.534Z,99.90
2019-02-14T06:09:23.449Z,99.90
2019-02-14T06:11:53.338Z,99.90
2019-02-14T06:14:23.537Z,99.90
2019-02-14T06:16:53.495Z,99.90
2019-02-14T06:19:23.438Z,99.90
2019-02-14T06:21:53.737Z,99.90
2019-02-14T06:24:23.678Z,99.90
2019-02-14T06:26:53.617Z,99.90
2019-02-14T06:29:23.457Z,99.90
2019-02-14T06:31:53.390Z,99.90
2019-02-14T06:34:23.286Z,99.90
2019-02-14T06:36:53.225Z,99.90
2019-02-14T06:39:23.072Z,99.90
2019-02-14T06:41:53.046Z,99.90
2019-02-14T06:44:23.113Z,99.90
2019-02-14T06:46:53.157Z,99.90
2019-02-14T06:49:22.994Z,99.90
2019-02-14T06:51:52.910Z,99.90
2019-02-14T06:54:22.979Z,99.90
2019-02-14T06:56:52.925Z,99.90
2019-02-14T06:59:22.896Z,99.90
2019-02-14T07:01:52.773Z,99.90
2019-02-14T07:04:23.049Z,99.90
2019-02-14T07:06:52.965Z,99.90
2019-02-14T07:09:23.217Z,99.90
2019-02-14T07:11:53.230Z,99.90
2019-02-14T07:14:23.626Z,99.90
2019-02-14T07:16:53.645Z,99.90
2019-02-14T07:19:23.510Z,99.90
2019-02-14T07:21:53.486Z,99.90
2019-02-14T07:24:23.413Z,99.90
2019-02-14T07:26:53.370Z,99.90
2019-02-14T07:29:23.286Z,99.90
2019-02-14T07:31:53.261Z,99.90
2019-02-14T07:36:52.589Z,99.90
2019-02-14T07:44:20.925Z,99.90
2019-02-14T07:46:51.097Z,99.90
2019-02-14T07:49:21.031Z,99.90
2019-02-14T07:51:50.946Z,99.90
2019-02-14T07:54:21.180Z,99.90
2019-02-14T08:01:51.293Z,99.90
2019-02-14T08:06:51.652Z,97.80
2019-02-14T08:09:21.631Z,95.40
2019-02-14T08:11:51.565Z,92.60
2019-02-14T08:14:21.514Z,86.10
2019-02-14T08:16:53.030Z,79.40
2019-02-14T08:19:22.973Z,78.70
2019-02-14T08:21:52.838Z,84.10
2019-02-14T08:26:52.014Z,87.70
2019-02-14T08:34:20.448Z,76.50
2019-02-14T08:36:50.583Z,83.40
2019-02-14T08:39:20.520Z,82.90
2019-02-14T08:41:50.791Z,81.80
2019-02-14T08:44:20.751Z,70.10
2019-02-14T08:46:50.766Z,68.90
2019-02-14T08:49:20.717Z,65.90
2019-02-14T08:51:50.856Z,62.30
2019-02-14T08:54:20.997Z,59.00
2019-02-14T08:56:51.111Z,61.30
2019-02-14T08:59:21.150Z,60.20
2019-02-14T09:01:51.087Z,59.10
2019-02-14T09:04:20.953Z,59.60
2019-02-14T09:06:50.903Z,59.10
2019-02-14T09:09:21.242Z,54.00
2019-02-14T09:11:51.149Z,55.10
2019-02-14T09:19:19.507Z,56.90
2019-02-14T09:21:49.458Z,55.10
2019-02-14T09:24:19.473Z,53.70
2019-02-14T09:31:47.942Z,57.30
2019-02-14T09:36:47.234Z,60.10
2019-02-14T09:39:17.245Z,58.90
2019-02-14T09:44:16.400Z,61.10
2019-02-14T09:51:45.236Z,61.10
2019-02-14T09:59:13.772Z,60.60
2019-02-14T10:01:43.762Z,62.70
2019-02-14T10:04:13.720Z,56.70
2019-02-14T10:06:43.726Z,55.20
2019-02-14T10:09:13.656Z,51.50
2019-02-14T10:14:12.819Z,49.30
2019-02-14T10:24:10.462Z,46.00
2019-02-14T10:26:40.381Z,44.90
2019-02-14T10:29:10.337Z,44.60
2019-02-14T10:31:40.176Z,43.60
2019-02-14T10:34:10.445Z,42.80
2019-02-14T10:36:40.375Z,39.90
2019-02-14T10:44:09.450Z,38.70
2019-02-14T10:46:39.736Z,37.80
2019-02-14T10:49:10.412Z,37.40
2019-02-14T10:51:40.347Z,38.70
2019-02-14T10:54:10.612Z,42.20
2019-02-14T10:56:40.529Z,42.70
2019-02-14T10:59:10.676Z,42.80
2019-02-14T11:01:40.792Z,45.00
2019-02-14T11:04:10.810Z,45.80
2019-02-14T11:26:35.533Z,45.00
2019-02-14T11:34:04.929Z,39.50
2019-02-14T11:39:06.005Z,44.70
2019-02-14T11:44:05.184Z,46.20
2019-02-14T11:46:35.882Z,44.80
2019-02-14T11:49:07.326Z,47.50
2019-02-14T11:56:36.976Z,45.50
2019-02-14T12:24:01.342Z,31.50
2019-02-14T12:29:00.541Z,30.90
2019-02-14T12:31:30.421Z,31.70
2019-02-14T12:34:00.333Z,32.00
2019-02-14T12:39:08.372Z,28.90
2019-02-14T12:46:29.861Z,26.10
2019-02-14T12:51:29.325Z,25.60
2019-02-14T13:01:27.143Z,29.00
2019-02-14T13:08:55.869Z,27.30
2019-02-14T13:21:22.801Z,25.40
2019-02-14T13:23:52.739Z,24.60
2019-02-14T13:26:22.990Z,25.10
2019-02-14T13:28:52.927Z,24.30
2019-02-14T13:31:31.632Z,22.60
2019-02-14T13:38:53.137Z,23.90
2019-02-14T13:41:30.905Z,22.70
2019-02-14T13:43:54.634Z,23.70
2019-02-14T13:46:25.029Z,21.20
2019-02-14T13:48:54.987Z,22.20
2019-02-14T13:51:24.951Z,25.10
2019-02-14T13:56:24.110Z,25.60
2019-02-14T14:03:52.666Z,27.50
2019-02-14T14:08:51.858Z,26.50
2019-02-14T14:11:22.038Z,26.20
2019-02-14T14:13:51.938Z,26.10
2019-02-14T14:21:20.253Z,26.70
2019-02-14T14:23:50.165Z,26.80
2019-02-14T14:26:20.213Z,26.90
2019-02-14T14:28:50.141Z,26.60
2019-02-14T14:36:18.828Z,26.30
2019-02-14T14:38:48.749Z,25.10
2019-02-14T14:41:18.629Z,25.50
2019-02-14T14:43:57.470Z,25.30
2019-02-14T14:49:11.085Z,24.20
2019-02-14T14:56:40.953Z,22.90
2019-02-14T14:59:10.906Z,22.30
2019-02-14T15:04:10.136Z,20.70
2019-02-14T15:09:09.325Z,20.60
2019-02-14T15:14:08.955Z,20.80
2019-02-14T15:16:38.899Z,20.50
2019-02-14T15:19:08.872Z,20.40
2019-02-14T15:21:38.802Z,21.80
2019-02-14T15:24:08.737Z,22.00
2019-02-14T15:26:38.677Z,22.90
2019-02-14T15:32:20.772Z,22.30
2019-02-14T15:34:51.571Z,23.90
2019-02-14T15:39:51.339Z,25.60
2019-02-14T15:42:21.569Z,26.00
2019-02-14T15:47:21.145Z,26.00
2019-02-14T15:49:51.138Z,27.40
2019-02-14T15:52:21.313Z,29.30
2019-02-14T15:54:51.286Z,30.50
2019-02-14T15:57:21.212Z,31.60
2019-02-14T15:59:51.111Z,32.70
2019-02-14T16:07:21.103Z,34.80
2019-02-14T16:12:21.911Z,37.90
2019-02-14T16:19:50.837Z,40.20
2019-02-14T16:37:18.242Z,45.10
2019-02-14T16:42:19.602Z,45.20
2019-02-14T16:44:49.926Z,45.30
2019-02-14T16:49:49.429Z,46.00
2019-02-14T16:52:19.481Z,45.90
2019-02-14T16:59:48.241Z,46.90
2019-02-14T17:02:18.173Z,46.30
2019-02-14T17:04:48.129Z,47.60
2019-02-14T17:07:21.468Z,47.80
2019-02-14T17:22:19.330Z,51.60
2019-02-14T17:27:18.776Z,53.20
2019-02-14T17:39:45.826Z,58.40
2019-02-14T17:44:44.838Z,59.90
2019-02-14T17:47:14.782Z,60.30
2019-02-14T17:52:13.962Z,63.30
2019-02-14T17:54:44.494Z,64.80
2019-02-14T17:59:43.657Z,67.60
2019-02-14T18:02:13.965Z,71.40
2019-02-14T18:04:43.831Z,72.50
2019-02-14T18:07:13.774Z,73.30
2019-02-14T18:09:43.713Z,73.80
2019-02-14T18:12:13.550Z,74.90
2019-02-14T18:17:12.641Z,78.80
2019-02-14T18:19:42.534Z,79.10
2019-02-14T18:24:41.698Z,79.30
2019-02-14T18:29:40.858Z,80.80
2019-02-14T18:32:11.143Z,80.20
2019-02-14T18:42:09.145Z,83.20
2019-02-14T18:44:39.356Z,84.60
2019-02-14T18:49:38.554Z,85.50
2019-02-14T18:52:09.801Z,85.30
2019-02-14T18:57:09.017Z,86.00
2019-02-14T19:09:35.747Z,90.20
2019-02-14T19:12:12.670Z,89.90
2019-02-14T19:14:45.110Z,90.20
2019-02-14T19:17:17.827Z,89.50
2019-02-14T19:19:47.750Z,90.20
2019-02-14T19:29:45.163Z,92.30
2019-02-14T19:37:13.501Z,92.70
2019-02-14T19:39:43.547Z,92.40
2019-02-14T19:47:12.002Z,93.30
2019-02-14T19:49:42.022Z,93.70
2019-02-14T19:54:41.988Z,93.90
2019-02-14T19:57:12.998Z,94.30
2019-02-14T19:59:42.921Z,94.40
2019-02-14T20:04:43.698Z,94.80
2019-02-14T20:07:13.670Z,94.80
2019-02-14T20:09:44.158Z,94.80
2019-02-14T20:12:14.130Z,94.80
2019-02-14T20:17:14.493Z,94.70
2019-02-14T20:19:44.590Z,94.70
2019-02-14T20:29:42.321Z,95.30
2019-02-14T20:39:41.334Z,95.80
2019-02-14T20:47:09.791Z,95.90
2019-02-14T20:52:08.926Z,96.50
2019-02-14T20:54:38.918Z,96.20
2019-02-14T21:02:07.718Z,95.70
2019-02-14T21:04:37.669Z,95.90
2019-02-14T21:12:06.006Z,96.60
2019-02-14T21:14:35.950Z,96.40
2019-02-14T21:17:05.864Z,97.00
2019-02-14T21:19:36.138Z,97.00
2019-02-14T21:27:04.602Z,97.50
2019-02-14T21:32:03.871Z,97.10
2019-02-14T21:34:33.862Z,97.30
2019-02-14T21:37:03.807Z,97.30
2019-02-14T21:42:18.603Z,96.70
2019-02-14T21:44:34.778Z,97.10
2019-02-14T21:49:34.423Z,98.10
2019-02-14T21:54:33.750Z,97.80
2019-02-14T21:59:33.081Z,97.50
2019-02-14T22:12:02.007Z,98.10
2019-02-14T22:14:31.896Z,97.90
2019-02-14T22:22:00.305Z,98.00
2019-02-14T22:31:58.532Z,98.70
2019-02-14T22:36:57.959Z,99.30
2019-02-14T22:41:57.134Z,98.40
2019-02-14T22:44:27.093Z,98.70
2019-02-14T22:51:55.471Z,98.50
2019-02-14T22:54:25.746Z,99.00
2019-02-14T22:56:55.926Z,99.10
2019-02-14T23:04:24.582Z,99.30
2019-02-14T23:11:53.173Z,99.50
2019-02-14T23:16:52.383Z,99.60
2019-02-14T23:21:51.533Z,99.80
2019-02-14T23:24:21.537Z,99.90
2019-02-14T23:26:51.457Z,99.70
2019-02-14T23:34:20.153Z,99.80
2019-02-14T23:39:19.229Z,99.90
2019-02-14T23:41:49.126Z,99.50
2019-02-14T23:44:19.069Z,99.30
2019-02-14T23:46:49.006Z,99.50
2019-02-14T23:51:48.236Z,99.90
2019-02-14T23:56:47.490Z,99.90
2019-02-14T23:59:17.481Z,99.90
